sensor_id;sensor_type;location;lat;lon;timestamp;P1;durP1;ratioP1;P2;durP2;ratioP2
18776;SDS011;9517;51.174;4.160;2023-05-09T00:01:44;24.93;;;15.20;;
18776;SDS011;9517;51.174;4.160;2023-05-09T00:04:14;26.40;;;14.80;;
18776;SDS011;9517;51.174;4.160;2023-05-09T00:06:42;25.33;;;13.97;;
18776;SDS011;9517;51.174;4.160;2023-05-09T00:09:09;28.23;;;14.07;;
18776;SDS011;9517;51.174;4.160;2023-05-09T00:11:36;31.37;;;14.63;;
18776;SDS011;9517;51.174;4.160;2023-05-09T00:14:03;28.00;;;14.30;;
18776;SDS011;9517;51.174;4.160;2023-05-09T00:16:31;28.50;;;15.43;;
18776;SDS011;9517;51.174;4.160;2023-05-09T00:18:58;29.13;;;15.53;;
18776;SDS011;9517;51.174;4.160;2023-05-09T00:21:27;28.70;;;15.53;;
18776;SDS011;9517;51.174;4.160;2023-05-09T00:23:55;28.33;;;15.00;;
18776;SDS011;9517;51.174;4.160;2023-05-09T00:26:23;32.07;;;15.70;;
18776;SDS011;9517;51.174;4.160;2023-05-09T00:28:50;27.20;;;14.40;;
18776;SDS011;9517;51.174;4.160;2023-05-09T00:31:18;25.40;;;15.53;;
18776;SDS011;9517;51.174;4.160;2023-05-09T00:33:45;25.53;;;14.73;;
18776;SDS011;9517;51.174;4.160;2023-05-09T00:36:13;27.33;;;15.60;;
18776;SDS011;9517;51.174;4.160;2023-05-09T00:38:41;22.90;;;14.17;;
18776;SDS011;9517;51.174;4.160;2023-05-09T00:41:08;27.93;;;15.57;;
18776;SDS011;9517;51.174;4.160;2023-05-09T00:43:36;26.47;;;15.00;;
18776;SDS011;9517;51.174;4.160;2023-05-09T00:46:03;27.27;;;15.30;;
18776;SDS011;9517;51.174;4.160;2023-05-09T00:48:30;29.60;;;16.37;;
18776;SDS011;9517;51.174;4.160;2023-05-09T00:50:57;26.47;;;15.70;;
18776;SDS011;9517;51.174;4.160;2023-05-09T00:53:25;28.87;;;15.73;;
18776;SDS011;9517;51.174;4.160;2023-05-09T00:55:54;32.10;;;17.10;;
18776;SDS011;9517;51.174;4.160;2023-05-09T00:58:22;30.83;;;15.70;;
18776;SDS011;9517;51.174;4.160;2023-05-09T01:00:49;26.00;;;15.17;;
18776;SDS011;9517;51.174;4.160;2023-05-09T01:03:17;28.43;;;15.07;;
18776;SDS011;9517;51.174;4.160;2023-05-09T01:05:47;32.93;;;14.87;;
18776;SDS011;9517;51.174;4.160;2023-05-09T01:08:21;27.40;;;14.43;;
18776;SDS011;9517;51.174;4.160;2023-05-09T01:11:00;29.97;;;15.07;;
18776;SDS011;9517;51.174;4.160;2023-05-09T01:13:37;27.20;;;14.87;;
18776;SDS011;9517;51.174;4.160;2023-05-09T01:16:11;28.73;;;15.77;;
18776;SDS011;9517;51.174;4.160;2023-05-09T01:18:48;25.50;;;15.20;;
18776;SDS011;9517;51.174;4.160;2023-05-09T01:21:20;24.17;;;14.20;;
18776;SDS011;9517;51.174;4.160;2023-05-09T01:27:10;24.50;;;14.60;;
18776;SDS011;9517;51.174;4.160;2023-05-09T01:29:48;23.60;;;13.57;;
18776;SDS011;9517;51.174;4.160;2023-05-09T01:32:21;23.47;;;13.50;;
18776;SDS011;9517;51.174;4.160;2023-05-09T01:34:51;22.03;;;13.03;;
18776;SDS011;9517;51.174;4.160;2023-05-09T01:37:22;26.97;;;13.87;;
18776;SDS011;9517;51.174;4.160;2023-05-09T01:39:56;23.90;;;14.03;;
18776;SDS011;9517;51.174;4.160;2023-05-09T01:42:34;26.20;;;14.33;;
18776;SDS011;9517;51.174;4.160;2023-05-09T01:45:07;25.87;;;13.33;;
18776;SDS011;9517;51.174;4.160;2023-05-09T01:47:36;24.50;;;13.80;;
18776;SDS011;9517;51.174;4.160;2023-05-09T01:50:05;23.57;;;14.10;;
18776;SDS011;9517;51.174;4.160;2023-05-09T01:52:34;25.97;;;14.20;;
18776;SDS011;9517;51.174;4.160;2023-05-09T01:55:03;23.47;;;14.07;;
18776;SDS011;9517;51.174;4.160;2023-05-09T01:57:32;29.03;;;15.17;;
18776;SDS011;9517;51.174;4.160;2023-05-09T02:00:00;25.13;;;14.07;;
18776;SDS011;9517;51.174;4.160;2023-05-09T02:02:33;25.43;;;14.37;;
18776;SDS011;9517;51.174;4.160;2023-05-09T02:05:02;24.80;;;14.20;;
18776;SDS011;9517;51.174;4.160;2023-05-09T02:07:30;27.33;;;14.43;;
18776;SDS011;9517;51.174;4.160;2023-05-09T02:09:58;24.90;;;14.63;;
18776;SDS011;9517;51.174;4.160;2023-05-09T02:12:28;27.30;;;14.43;;
18776;SDS011;9517;51.174;4.160;2023-05-09T02:14:55;24.83;;;14.03;;
18776;SDS011;9517;51.174;4.160;2023-05-09T02:17:22;24.50;;;13.93;;
18776;SDS011;9517;51.174;4.160;2023-05-09T02:19:51;27.07;;;15.30;;
18776;SDS011;9517;51.174;4.160;2023-05-09T02:22:18;25.57;;;14.67;;
18776;SDS011;9517;51.174;4.160;2023-05-09T02:24:45;27.40;;;14.20;;
18776;SDS011;9517;51.174;4.160;2023-05-09T02:27:13;25.13;;;14.73;;
18776;SDS011;9517;51.174;4.160;2023-05-09T02:29:42;22.53;;;14.30;;
18776;SDS011;9517;51.174;4.160;2023-05-09T02:32:14;22.73;;;13.83;;
18776;SDS011;9517;51.174;4.160;2023-05-09T02:34:44;20.90;;;13.00;;
18776;SDS011;9517;51.174;4.160;2023-05-09T02:37:14;23.43;;;13.53;;
18776;SDS011;9517;51.174;4.160;2023-05-09T02:39:41;25.70;;;13.67;;
18776;SDS011;9517;51.174;4.160;2023-05-09T02:42:09;22.40;;;13.07;;
18776;SDS011;9517;51.174;4.160;2023-05-09T02:44:41;25.60;;;13.43;;
18776;SDS011;9517;51.174;4.160;2023-05-09T02:47:08;27.57;;;13.27;;
18776;SDS011;9517;51.174;4.160;2023-05-09T02:49:35;24.53;;;13.70;;
18776;SDS011;9517;51.174;4.160;2023-05-09T02:52:03;20.13;;;12.60;;
18776;SDS011;9517;51.174;4.160;2023-05-09T02:54:32;21.67;;;12.80;;
18776;SDS011;9517;51.174;4.160;2023-05-09T02:56:59;23.27;;;12.93;;
18776;SDS011;9517;51.174;4.160;2023-05-09T02:59:26;23.40;;;12.83;;
18776;SDS011;9517;51.174;4.160;2023-05-09T03:01:53;23.93;;;12.80;;
18776;SDS011;9517;51.174;4.160;2023-05-09T03:04:21;21.87;;;12.97;;
18776;SDS011;9517;51.174;4.160;2023-05-09T03:06:49;22.57;;;12.73;;
18776;SDS011;9517;51.174;4.160;2023-05-09T03:09:17;25.33;;;12.87;;
18776;SDS011;9517;51.174;4.160;2023-05-09T03:11:45;21.80;;;11.37;;
18776;SDS011;9517;51.174;4.160;2023-05-09T03:14:13;21.17;;;12.00;;
18776;SDS011;9517;51.174;4.160;2023-05-09T03:16:40;20.93;;;11.97;;
18776;SDS011;9517;51.174;4.160;2023-05-09T03:19:07;23.33;;;12.40;;
18776;SDS011;9517;51.174;4.160;2023-05-09T03:21:34;21.93;;;12.60;;
18776;SDS011;9517;51.174;4.160;2023-05-09T03:24:01;22.33;;;12.33;;
18776;SDS011;9517;51.174;4.160;2023-05-09T03:26:29;20.60;;;11.13;;
18776;SDS011;9517;51.174;4.160;2023-05-09T03:28:57;19.10;;;11.13;;
18776;SDS011;9517;51.174;4.160;2023-05-09T03:31:25;24.13;;;12.30;;
18776;SDS011;9517;51.174;4.160;2023-05-09T03:33:52;25.53;;;12.20;;
18776;SDS011;9517;51.174;4.160;2023-05-09T03:36:19;23.67;;;11.37;;
18776;SDS011;9517;51.174;4.160;2023-05-09T03:38:47;24.20;;;12.37;;
18776;SDS011;9517;51.174;4.160;2023-05-09T03:41:15;21.27;;;11.63;;
18776;SDS011;9517;51.174;4.160;2023-05-09T03:43:43;20.23;;;12.07;;
18776;SDS011;9517;51.174;4.160;2023-05-09T03:46:11;23.03;;;12.60;;
18776;SDS011;9517;51.174;4.160;2023-05-09T03:48:38;20.87;;;12.07;;
18776;SDS011;9517;51.174;4.160;2023-05-09T03:51:06;22.10;;;12.53;;
18776;SDS011;9517;51.174;4.160;2023-05-09T03:53:33;21.40;;;12.20;;
18776;SDS011;9517;51.174;4.160;2023-05-09T03:56:00;20.37;;;12.47;;
18776;SDS011;9517;51.174;4.160;2023-05-09T03:58:27;21.20;;;12.27;;
18776;SDS011;9517;51.174;4.160;2023-05-09T04:00:55;23.87;;;12.23;;
18776;SDS011;9517;51.174;4.160;2023-05-09T04:03:24;20.93;;;12.53;;
18776;SDS011;9517;51.174;4.160;2023-05-09T04:05:52;23.70;;;13.63;;
18776;SDS011;9517;51.174;4.160;2023-05-09T04:08:20;22.67;;;12.90;;
18776;SDS011;9517;51.174;4.160;2023-05-09T04:10:47;24.70;;;12.77;;
18776;SDS011;9517;51.174;4.160;2023-05-09T04:13:15;24.47;;;13.63;;
18776;SDS011;9517;51.174;4.160;2023-05-09T04:15:42;21.40;;;12.50;;
18776;SDS011;9517;51.174;4.160;2023-05-09T04:18:09;23.27;;;13.33;;
18776;SDS011;9517;51.174;4.160;2023-05-09T04:20:37;21.63;;;13.03;;
18776;SDS011;9517;51.174;4.160;2023-05-09T04:23:04;23.50;;;14.97;;
18776;SDS011;9517;51.174;4.160;2023-05-09T04:25:32;27.23;;;14.03;;
18776;SDS011;9517;51.174;4.160;2023-05-09T04:27:59;26.53;;;15.70;;
18776;SDS011;9517;51.174;4.160;2023-05-09T04:30:26;29.73;;;15.37;;
18776;SDS011;9517;51.174;4.160;2023-05-09T04:32:53;26.80;;;15.13;;
18776;SDS011;9517;51.174;4.160;2023-05-09T04:35:21;28.23;;;15.63;;
18776;SDS011;9517;51.174;4.160;2023-05-09T04:37:49;23.60;;;14.47;;
18776;SDS011;9517;51.174;4.160;2023-05-09T04:40:17;26.63;;;14.97;;
18776;SDS011;9517;51.174;4.160;2023-05-09T04:42:44;28.40;;;15.33;;
18776;SDS011;9517;51.174;4.160;2023-05-09T04:45:11;25.40;;;14.73;;
18776;SDS011;9517;51.174;4.160;2023-05-09T04:47:39;27.33;;;16.47;;
18776;SDS011;9517;51.174;4.160;2023-05-09T04:50:06;27.80;;;15.27;;
18776;SDS011;9517;51.174;4.160;2023-05-09T04:52:34;30.10;;;15.57;;
18776;SDS011;9517;51.174;4.160;2023-05-09T04:55:03;27.20;;;15.87;;
18776;SDS011;9517;51.174;4.160;2023-05-09T04:57:31;28.57;;;16.17;;
18776;SDS011;9517;51.174;4.160;2023-05-09T04:59:59;29.97;;;16.50;;
18776;SDS011;9517;51.174;4.160;2023-05-09T05:02:26;33.53;;;18.43;;
18776;SDS011;9517;51.174;4.160;2023-05-09T05:04:53;28.60;;;17.33;;
18776;SDS011;9517;51.174;4.160;2023-05-09T05:07:20;26.87;;;16.90;;
18776;SDS011;9517;51.174;4.160;2023-05-09T05:09:47;30.37;;;17.37;;
18776;SDS011;9517;51.174;4.160;2023-05-09T05:12:16;28.30;;;16.43;;
18776;SDS011;9517;51.174;4.160;2023-05-09T05:14:43;31.73;;;18.83;;
18776;SDS011;9517;51.174;4.160;2023-05-09T05:17:10;29.70;;;17.97;;
18776;SDS011;9517;51.174;4.160;2023-05-09T05:19:37;28.47;;;18.17;;
18776;SDS011;9517;51.174;4.160;2023-05-09T05:22:04;32.50;;;17.87;;
18776;SDS011;9517;51.174;4.160;2023-05-09T05:24:31;31.03;;;18.20;;
18776;SDS011;9517;51.174;4.160;2023-05-09T05:26:59;30.87;;;19.00;;
18776;SDS011;9517;51.174;4.160;2023-05-09T05:29:28;30.37;;;18.20;;
18776;SDS011;9517;51.174;4.160;2023-05-09T05:31:55;32.13;;;19.77;;
18776;SDS011;9517;51.174;4.160;2023-05-09T05:34:22;35.83;;;19.40;;
18776;SDS011;9517;51.174;4.160;2023-05-09T05:36:50;39.60;;;19.40;;
18776;SDS011;9517;51.174;4.160;2023-05-09T05:39:17;32.27;;;19.70;;
18776;SDS011;9517;51.174;4.160;2023-05-09T05:41:44;34.83;;;19.20;;
18776;SDS011;9517;51.174;4.160;2023-05-09T05:44:11;29.47;;;18.27;;
18776;SDS011;9517;51.174;4.160;2023-05-09T05:46:39;32.30;;;18.63;;
18776;SDS011;9517;51.174;4.160;2023-05-09T05:49:06;38.13;;;20.03;;
18776;SDS011;9517;51.174;4.160;2023-05-09T05:51:33;33.17;;;19.10;;
18776;SDS011;9517;51.174;4.160;2023-05-09T05:54:01;37.47;;;19.73;;
18776;SDS011;9517;51.174;4.160;2023-05-09T05:56:28;36.93;;;18.87;;
18776;SDS011;9517;51.174;4.160;2023-05-09T05:58:55;32.17;;;18.50;;
18776;SDS011;9517;51.174;4.160;2023-05-09T06:01:22;41.00;;;18.67;;
18776;SDS011;9517;51.174;4.160;2023-05-09T06:03:50;38.93;;;19.53;;
18776;SDS011;9517;51.174;4.160;2023-05-09T06:06:19;34.13;;;18.40;;
18776;SDS011;9517;51.174;4.160;2023-05-09T06:08:47;31.53;;;19.30;;
18776;SDS011;9517;51.174;4.160;2023-05-09T06:11:15;29.13;;;17.83;;
18776;SDS011;9517;51.174;4.160;2023-05-09T06:13:42;31.67;;;18.33;;
18776;SDS011;9517;51.174;4.160;2023-05-09T06:16:09;27.80;;;17.60;;
18776;SDS011;9517;51.174;4.160;2023-05-09T06:18:36;33.30;;;18.83;;
18776;SDS011;9517;51.174;4.160;2023-05-09T06:21:05;41.27;;;18.60;;
18776;SDS011;9517;51.174;4.160;2023-05-09T06:23:33;34.47;;;18.47;;
18776;SDS011;9517;51.174;4.160;2023-05-09T06:26:01;45.47;;;18.80;;
18776;SDS011;9517;51.174;4.160;2023-05-09T06:28:28;42.33;;;18.23;;
18776;SDS011;9517;51.174;4.160;2023-05-09T06:30:55;42.43;;;18.73;;
18776;SDS011;9517;51.174;4.160;2023-05-09T06:33:22;32.23;;;18.10;;
18776;SDS011;9517;51.174;4.160;2023-05-09T06:35:49;39.07;;;17.50;;
18776;SDS011;9517;51.174;4.160;2023-05-09T06:38:18;33.83;;;17.53;;
18776;SDS011;9517;51.174;4.160;2023-05-09T06:40:45;30.17;;;16.83;;
18776;SDS011;9517;51.174;4.160;2023-05-09T06:43:12;29.83;;;16.60;;
18776;SDS011;9517;51.174;4.160;2023-05-09T06:45:39;36.67;;;15.97;;
18776;SDS011;9517;51.174;4.160;2023-05-09T06:48:06;27.83;;;16.80;;
18776;SDS011;9517;51.174;4.160;2023-05-09T06:50:33;30.20;;;15.73;;
18776;SDS011;9517;51.174;4.160;2023-05-09T06:53:01;32.73;;;16.17;;
18776;SDS011;9517;51.174;4.160;2023-05-09T06:55:29;29.17;;;15.73;;
18776;SDS011;9517;51.174;4.160;2023-05-09T06:57:56;31.10;;;16.63;;
18776;SDS011;9517;51.174;4.160;2023-05-09T07:00:23;24.83;;;15.90;;
18776;SDS011;9517;51.174;4.160;2023-05-09T07:02:51;28.40;;;16.30;;
18776;SDS011;9517;51.174;4.160;2023-05-09T07:05:18;26.83;;;14.73;;
18776;SDS011;9517;51.174;4.160;2023-05-09T07:07:45;26.87;;;15.63;;
18776;SDS011;9517;51.174;4.160;2023-05-09T07:10:12;28.43;;;16.20;;
18776;SDS011;9517;51.174;4.160;2023-05-09T07:12:40;29.97;;;16.87;;
18776;SDS011;9517;51.174;4.160;2023-05-09T07:15:08;26.80;;;15.00;;
18776;SDS011;9517;51.174;4.160;2023-05-09T07:17:36;30.60;;;16.20;;
18776;SDS011;9517;51.174;4.160;2023-05-09T07:20:03;26.33;;;14.90;;
18776;SDS011;9517;51.174;4.160;2023-05-09T07:22:31;27.10;;;16.27;;
18776;SDS011;9517;51.174;4.160;2023-05-09T07:24:59;28.50;;;15.90;;
18776;SDS011;9517;51.174;4.160;2023-05-09T07:27:26;28.80;;;15.43;;
18776;SDS011;9517;51.174;4.160;2023-05-09T07:29:54;29.40;;;15.33;;
18776;SDS011;9517;51.174;4.160;2023-05-09T07:32:21;23.97;;;15.07;;
18776;SDS011;9517;51.174;4.160;2023-05-09T07:34:48;25.97;;;17.23;;
18776;SDS011;9517;51.174;4.160;2023-05-09T07:37:16;30.10;;;15.63;;
18776;SDS011;9517;51.174;4.160;2023-05-09T07:39:43;29.23;;;16.50;;
18776;SDS011;9517;51.174;4.160;2023-05-09T07:42:11;28.23;;;16.37;;
18776;SDS011;9517;51.174;4.160;2023-05-09T07:44:39;26.60;;;17.30;;
18776;SDS011;9517;51.174;4.160;2023-05-09T07:47:07;26.57;;;15.07;;
18776;SDS011;9517;51.174;4.160;2023-05-09T07:49:35;28.03;;;17.23;;
18776;SDS011;9517;51.174;4.160;2023-05-09T07:52:04;27.43;;;15.33;;
18776;SDS011;9517;51.174;4.160;2023-05-09T07:54:31;23.97;;;15.03;;
18776;SDS011;9517;51.174;4.160;2023-05-09T07:56:58;27.10;;;15.60;;
18776;SDS011;9517;51.174;4.160;2023-05-09T07:59:25;24.83;;;13.37;;
18776;SDS011;9517;51.174;4.160;2023-05-09T08:01:53;24.13;;;13.80;;
18776;SDS011;9517;51.174;4.160;2023-05-09T08:04:21;37.67;;;15.23;;
18776;SDS011;9517;51.174;4.160;2023-05-09T08:06:48;27.33;;;13.83;;
18776;SDS011;9517;51.174;4.160;2023-05-09T08:09:15;25.17;;;13.43;;
18776;SDS011;9517;51.174;4.160;2023-05-09T08:11:43;26.20;;;12.57;;
18776;SDS011;9517;51.174;4.160;2023-05-09T08:14:10;23.13;;;12.43;;
18776;SDS011;9517;51.174;4.160;2023-05-09T08:16:37;24.17;;;12.07;;
18776;SDS011;9517;51.174;4.160;2023-05-09T08:19:04;24.93;;;12.60;;
18776;SDS011;9517;51.174;4.160;2023-05-09T08:21:33;36.97;;;13.57;;
18776;SDS011;9517;51.174;4.160;2023-05-09T08:24:00;23.60;;;11.80;;
18776;SDS011;9517;51.174;4.160;2023-05-09T08:26:27;21.53;;;11.20;;
18776;SDS011;9517;51.174;4.160;2023-05-09T08:28:54;21.97;;;11.97;;
18776;SDS011;9517;51.174;4.160;2023-05-09T08:31:21;24.20;;;11.47;;
18776;SDS011;9517;51.174;4.160;2023-05-09T08:33:51;22.30;;;11.93;;
18776;SDS011;9517;51.174;4.160;2023-05-09T08:36:18;24.13;;;12.87;;
18776;SDS011;9517;51.174;4.160;2023-05-09T08:38:46;20.07;;;11.87;;
18776;SDS011;9517;51.174;4.160;2023-05-09T08:41:14;23.77;;;12.20;;
18776;SDS011;9517;51.174;4.160;2023-05-09T08:43:41;23.90;;;12.03;;
18776;SDS011;9517;51.174;4.160;2023-05-09T08:46:09;22.77;;;11.90;;
18776;SDS011;9517;51.174;4.160;2023-05-09T08:48:38;20.17;;;12.53;;
18776;SDS011;9517;51.174;4.160;2023-05-09T08:51:06;25.40;;;12.03;;
18776;SDS011;9517;51.174;4.160;2023-05-09T08:53:35;24.23;;;11.77;;
18776;SDS011;9517;51.174;4.160;2023-05-09T08:56:04;20.53;;;11.07;;
18776;SDS011;9517;51.174;4.160;2023-05-09T08:58:32;22.50;;;11.73;;
18776;SDS011;9517;51.174;4.160;2023-05-09T09:01:00;25.53;;;12.60;;
18776;SDS011;9517;51.174;4.160;2023-05-09T09:03:30;23.23;;;11.17;;
18776;SDS011;9517;51.174;4.160;2023-05-09T09:05:58;18.60;;;10.07;;
18776;SDS011;9517;51.174;4.160;2023-05-09T09:08:26;34.13;;;12.67;;
18776;SDS011;9517;51.174;4.160;2023-05-09T09:10:53;22.40;;;12.70;;
18776;SDS011;9517;51.174;4.160;2023-05-09T09:13:22;22.50;;;12.40;;
18776;SDS011;9517;51.174;4.160;2023-05-09T09:15:50;19.63;;;11.47;;
18776;SDS011;9517;51.174;4.160;2023-05-09T09:18:21;18.17;;;10.60;;
18776;SDS011;9517;51.174;4.160;2023-05-09T09:20:51;22.87;;;11.80;;
18776;SDS011;9517;51.174;4.160;2023-05-09T09:23:23;41.43;;;11.93;;
18776;SDS011;9517;51.174;4.160;2023-05-09T09:25:55;27.43;;;11.17;;
18776;SDS011;9517;51.174;4.160;2023-05-09T09:28:25;28.03;;;12.27;;
18776;SDS011;9517;51.174;4.160;2023-05-09T09:30:52;22.73;;;11.37;;
18776;SDS011;9517;51.174;4.160;2023-05-09T09:33:20;23.50;;;10.97;;
18776;SDS011;9517;51.174;4.160;2023-05-09T09:35:48;19.30;;;10.07;;
18776;SDS011;9517;51.174;4.160;2023-05-09T09:38:16;22.43;;;10.60;;
18776;SDS011;9517;51.174;4.160;2023-05-09T09:40:47;21.33;;;11.13;;
18776;SDS011;9517;51.174;4.160;2023-05-09T09:43:18;22.77;;;10.83;;
18776;SDS011;9517;51.174;4.160;2023-05-09T09:45:48;17.77;;;10.33;;
18776;SDS011;9517;51.174;4.160;2023-05-09T09:48:16;26.23;;;10.37;;
18776;SDS011;9517;51.174;4.160;2023-05-09T09:50:43;23.07;;;9.80;;
18776;SDS011;9517;51.174;4.160;2023-05-09T09:53:13;21.90;;;11.60;;
18776;SDS011;9517;51.174;4.160;2023-05-09T09:55:47;22.80;;;12.17;;
18776;SDS011;9517;51.174;4.160;2023-05-09T09:58:15;26.40;;;11.67;;
18776;SDS011;9517;51.174;4.160;2023-05-09T10:00:43;23.07;;;12.57;;
18776;SDS011;9517;51.174;4.160;2023-05-09T10:03:14;17.47;;;11.10;;
18776;SDS011;9517;51.174;4.160;2023-05-09T10:05:41;22.20;;;10.77;;
18776;SDS011;9517;51.174;4.160;2023-05-09T10:08:09;16.70;;;10.77;;
18776;SDS011;9517;51.174;4.160;2023-05-09T10:10:36;18.37;;;10.37;;
18776;SDS011;9517;51.174;4.160;2023-05-09T10:13:05;20.87;;;11.03;;
18776;SDS011;9517;51.174;4.160;2023-05-09T10:15:34;19.33;;;10.07;;
18776;SDS011;9517;51.174;4.160;2023-05-09T10:18:02;19.00;;;11.47;;
18776;SDS011;9517;51.174;4.160;2023-05-09T10:20:33;17.73;;;10.23;;
18776;SDS011;9517;51.174;4.160;2023-05-09T10:23:06;19.67;;;11.23;;
18776;SDS011;9517;51.174;4.160;2023-05-09T10:25:37;22.13;;;9.63;;
18776;SDS011;9517;51.174;4.160;2023-05-09T10:28:08;15.67;;;9.83;;
18776;SDS011;9517;51.174;4.160;2023-05-09T10:30:40;18.03;;;9.47;;
18776;SDS011;9517;51.174;4.160;2023-05-09T10:33:15;19.50;;;9.77;;
18776;SDS011;9517;51.174;4.160;2023-05-09T10:35:50;17.43;;;10.07;;
18776;SDS011;9517;51.174;4.160;2023-05-09T10:38:19;16.97;;;9.07;;
18776;SDS011;9517;51.174;4.160;2023-05-09T10:40:48;14.30;;;8.33;;
18776;SDS011;9517;51.174;4.160;2023-05-09T10:43:17;12.53;;;7.10;;
18776;SDS011;9517;51.174;4.160;2023-05-09T10:45:45;16.10;;;8.47;;
18776;SDS011;9517;51.174;4.160;2023-05-09T10:48:13;17.17;;;8.30;;
18776;SDS011;9517;51.174;4.160;2023-05-09T10:50:40;18.90;;;7.17;;
18776;SDS011;9517;51.174;4.160;2023-05-09T10:53:10;16.77;;;5.90;;
18776;SDS011;9517;51.174;4.160;2023-05-09T10:55:38;13.07;;;5.53;;
18776;SDS011;9517;51.174;4.160;2023-05-09T10:58:22;12.37;;;5.53;;
18776;SDS011;9517;51.174;4.160;2023-05-09T11:00:52;18.10;;;5.80;;
18776;SDS011;9517;51.174;4.160;2023-05-09T11:03:20;11.20;;;5.13;;
18776;SDS011;9517;51.174;4.160;2023-05-09T11:05:49;22.10;;;6.60;;
18776;SDS011;9517;51.174;4.160;2023-05-09T11:08:22;11.70;;;5.37;;
18776;SDS011;9517;51.174;4.160;2023-05-09T11:10:51;11.77;;;6.23;;
18776;SDS011;9517;51.174;4.160;2023-05-09T11:13:19;13.10;;;5.83;;
18776;SDS011;9517;51.174;4.160;2023-05-09T11:16:05;15.17;;;6.70;;
18776;SDS011;9517;51.174;4.160;2023-05-09T11:18:50;17.57;;;5.77;;
18776;SDS011;9517;51.174;4.160;2023-05-09T11:21:19;15.93;;;6.40;;
18776;SDS011;9517;51.174;4.160;2023-05-09T11:23:48;15.83;;;6.47;;
18776;SDS011;9517;51.174;4.160;2023-05-09T11:26:16;20.37;;;6.67;;
18776;SDS011;9517;51.174;4.160;2023-05-09T11:28:51;14.17;;;5.67;;
18776;SDS011;9517;51.174;4.160;2023-05-09T11:31:22;12.40;;;5.80;;
18776;SDS011;9517;51.174;4.160;2023-05-09T11:33:49;14.03;;;5.10;;
18776;SDS011;9517;51.174;4.160;2023-05-09T11:36:26;14.77;;;5.00;;
18776;SDS011;9517;51.174;4.160;2023-05-09T11:39:02;15.63;;;4.90;;
18776;SDS011;9517;51.174;4.160;2023-05-09T11:41:31;20.20;;;5.57;;
18776;SDS011;9517;51.174;4.160;2023-05-09T11:44:13;12.30;;;4.27;;
18776;SDS011;9517;51.174;4.160;2023-05-09T11:46:41;16.17;;;4.63;;
18776;SDS011;9517;51.174;4.160;2023-05-09T11:49:09;19.20;;;5.13;;
18776;SDS011;9517;51.174;4.160;2023-05-09T11:51:36;12.80;;;3.93;;
18776;SDS011;9517;51.174;4.160;2023-05-09T11:54:05;13.73;;;3.83;;
18776;SDS011;9517;51.174;4.160;2023-05-09T11:56:33;10.17;;;3.97;;
18776;SDS011;9517;51.174;4.160;2023-05-09T11:59:01;15.80;;;4.60;;
18776;SDS011;9517;51.174;4.160;2023-05-09T12:01:28;8.93;;;3.57;;
18776;SDS011;9517;51.174;4.160;2023-05-09T12:03:56;13.73;;;4.03;;
18776;SDS011;9517;51.174;4.160;2023-05-09T12:06:24;10.47;;;4.00;;
18776;SDS011;9517;51.174;4.160;2023-05-09T12:08:53;11.13;;;4.30;;
18776;SDS011;9517;51.174;4.160;2023-05-09T12:11:22;9.20;;;4.67;;
18776;SDS011;9517;51.174;4.160;2023-05-09T12:13:51;11.20;;;5.27;;
18776;SDS011;9517;51.174;4.160;2023-05-09T12:16:18;12.23;;;5.20;;
18776;SDS011;9517;51.174;4.160;2023-05-09T12:18:47;11.63;;;4.50;;
18776;SDS011;9517;51.174;4.160;2023-05-09T12:21:22;10.17;;;4.23;;
18776;SDS011;9517;51.174;4.160;2023-05-09T12:23:50;11.27;;;4.43;;
18776;SDS011;9517;51.174;4.160;2023-05-09T12:26:23;9.83;;;4.20;;
18776;SDS011;9517;51.174;4.160;2023-05-09T12:28:51;10.10;;;4.50;;
18776;SDS011;9517;51.174;4.160;2023-05-09T12:31:18;12.67;;;4.63;;
18776;SDS011;9517;51.174;4.160;2023-05-09T12:33:46;16.30;;;5.00;;
18776;SDS011;9517;51.174;4.160;2023-05-09T12:36:14;12.17;;;4.57;;
18776;SDS011;9517;51.174;4.160;2023-05-09T12:38:50;13.40;;;4.73;;
18776;SDS011;9517;51.174;4.160;2023-05-09T12:41:18;9.10;;;4.17;;
18776;SDS011;9517;51.174;4.160;2023-05-09T12:43:48;9.80;;;4.67;;
18776;SDS011;9517;51.174;4.160;2023-05-09T12:46:16;11.73;;;4.47;;
18776;SDS011;9517;51.174;4.160;2023-05-09T12:48:44;13.00;;;4.57;;
18776;SDS011;9517;51.174;4.160;2023-05-09T12:51:11;11.60;;;4.60;;
18776;SDS011;9517;51.174;4.160;2023-05-09T12:53:43;12.50;;;3.60;;
18776;SDS011;9517;51.174;4.160;2023-05-09T12:56:11;9.93;;;4.07;;
18776;SDS011;9517;51.174;4.160;2023-05-09T12:58:40;9.63;;;3.63;;
18776;SDS011;9517;51.174;4.160;2023-05-09T13:01:16;10.63;;;3.87;;
18776;SDS011;9517;51.174;4.160;2023-05-09T13:03:43;9.63;;;3.63;;
18776;SDS011;9517;51.174;4.160;2023-05-09T13:06:16;12.53;;;4.30;;
18776;SDS011;9517;51.174;4.160;2023-05-09T13:08:43;12.63;;;3.90;;
18776;SDS011;9517;51.174;4.160;2023-05-09T13:11:21;9.80;;;4.47;;
18776;SDS011;9517;51.174;4.160;2023-05-09T13:13:51;13.20;;;4.70;;
18776;SDS011;9517;51.174;4.160;2023-05-09T13:16:20;9.50;;;3.83;;
18776;SDS011;9517;51.174;4.160;2023-05-09T13:18:47;12.33;;;4.10;;
18776;SDS011;9517;51.174;4.160;2023-05-09T13:21:14;13.97;;;4.97;;
18776;SDS011;9517;51.174;4.160;2023-05-09T13:23:41;13.10;;;5.00;;
18776;SDS011;9517;51.174;4.160;2023-05-09T13:26:14;11.93;;;4.80;;
18776;SDS011;9517;51.174;4.160;2023-05-09T13:28:41;10.70;;;4.70;;
18776;SDS011;9517;51.174;4.160;2023-05-09T13:31:10;13.37;;;5.30;;
18776;SDS011;9517;51.174;4.160;2023-05-09T13:33:37;25.03;;;7.27;;
18776;SDS011;9517;51.174;4.160;2023-05-09T13:36:04;11.27;;;5.37;;
18776;SDS011;9517;51.174;4.160;2023-05-09T13:38:31;11.83;;;4.47;;
18776;SDS011;9517;51.174;4.160;2023-05-09T13:41:02;16.27;;;5.50;;
18776;SDS011;9517;51.174;4.160;2023-05-09T13:43:30;10.73;;;4.90;;
18776;SDS011;9517;51.174;4.160;2023-05-09T13:45:57;11.87;;;4.40;;
18776;SDS011;9517;51.174;4.160;2023-05-09T13:48:25;11.87;;;4.33;;
18776;SDS011;9517;51.174;4.160;2023-05-09T13:50:53;8.80;;;3.90;;
18776;SDS011;9517;51.174;4.160;2023-05-09T13:53:21;10.70;;;4.20;;
18776;SDS011;9517;51.174;4.160;2023-05-09T13:55:48;9.83;;;4.07;;
18776;SDS011;9517;51.174;4.160;2023-05-09T13:58:16;10.13;;;4.80;;
18776;SDS011;9517;51.174;4.160;2023-05-09T14:00:43;8.67;;;3.73;;
18776;SDS011;9517;51.174;4.160;2023-05-09T14:03:10;10.63;;;4.20;;
18776;SDS011;9517;51.174;4.160;2023-05-09T14:05:39;8.97;;;3.97;;
18776;SDS011;9517;51.174;4.160;2023-05-09T14:08:06;11.73;;;3.93;;
18776;SDS011;9517;51.174;4.160;2023-05-09T14:10:34;10.30;;;4.20;;
18776;SDS011;9517;51.174;4.160;2023-05-09T14:13:01;12.63;;;4.43;;
18776;SDS011;9517;51.174;4.160;2023-05-09T14:15:28;8.37;;;3.90;;
18776;SDS011;9517;51.174;4.160;2023-05-09T14:17:55;7.87;;;3.33;;
18776;SDS011;9517;51.174;4.160;2023-05-09T14:20:23;7.67;;;3.60;;
18776;SDS011;9517;51.174;4.160;2023-05-09T14:22:51;7.80;;;3.80;;
18776;SDS011;9517;51.174;4.160;2023-05-09T14:25:23;10.23;;;4.07;;
18776;SDS011;9517;51.174;4.160;2023-05-09T14:27:51;8.03;;;3.77;;
18776;SDS011;9517;51.174;4.160;2023-05-09T14:30:18;8.33;;;3.63;;
18776;SDS011;9517;51.174;4.160;2023-05-09T14:32:46;7.87;;;3.50;;
18776;SDS011;9517;51.174;4.160;2023-05-09T14:35:13;8.30;;;3.20;;
18776;SDS011;9517;51.174;4.160;2023-05-09T14:37:40;8.10;;;3.20;;
18776;SDS011;9517;51.174;4.160;2023-05-09T14:40:10;8.87;;;3.97;;
18776;SDS011;9517;51.174;4.160;2023-05-09T14:42:37;10.23;;;4.37;;
18776;SDS011;9517;51.174;4.160;2023-05-09T14:45:05;8.00;;;3.60;;
18776;SDS011;9517;51.174;4.160;2023-05-09T14:47:34;8.17;;;3.90;;
18776;SDS011;9517;51.174;4.160;2023-05-09T14:50:02;8.63;;;3.70;;
18776;SDS011;9517;51.174;4.160;2023-05-09T14:52:29;8.53;;;3.73;;